Time;durP1;ratioP1;P1;durP2;ratioP2;P2;SDS_P1;SDS_P2;PMS_P1;PMS_P2;Temp;Humidity;BMP_temperature;BMP_pressure;BME280_temperature;BME280_humidity;BME280_pressure;Samples;Min_cycle;Max_cycle;Signal;HPM_P1;HPM_P2
2023/12/17 00:01:31;;;;;;;13.27;8.03;;;;;;;;;;5026585;28;20095;-64
2023/12/17 00:03:57;;;;;;;12.43;7.43;;;;;;;;;;5026803;28;20045;-64
2023/12/17 00:06:23;;;;;;;15.43;7.30;;;;;;;;;;5039969;28;20041;-64
2023/12/17 00:08:49;;;;;;;12.97;6.43;;;;;;;;;;5049621;28;20041;-64
2023/12/17 00:11:15;;;;;;;20.97;7.63;;;;;;;;;;5022669;28;20522;-64
2023/12/17 00:13:41;;;;;;;12.87;6.30;;;;;;;;;;5025706;28;20125;-64
2023/12/17 00:16:08;;;;;;;15.93;6.63;;;;;;;;;;5029373;28;20103;-64
2023/12/17 00:18:34;;;;;;;16.23;6.63;;;;;;;;;;5029487;28;20045;-64
2023/12/17 00:21:00;;;;;;;13.47;6.37;;;;;;;;;;5030295;28;20047;-64
2023/12/17 00:23:26;;;;;;;16.03;6.97;;;;;;;;;;5030092;28;20045;-64
2023/12/17 00:25:52;;;;;;;16.20;6.33;;;;;;;;;;5030250;28;20071;-64
2023/12/17 00:28:18;;;;;;;10.17;6.10;;;;;;;;;;5031914;28;20500;-64
2023/12/17 00:30:44;;;;;;;14.73;7.80;;;;;;;;;;5029620;28;20397;-64
2023/12/17 00:33:11;;;;;;;22.70;7.87;;;;;;;;;;5029635;28;20511;-64
2023/12/17 00:35:37;;;;;;;17.70;8.13;;;;;;;;;;5029805;28;20049;-64
2023/12/17 00:38:03;;;;;;;15.33;7.73;;;;;;;;;;5029703;28;20152;-64
2023/12/17 00:40:29;;;;;;;16.23;7.77;;;;;;;;;;5029881;28;20521;-64
2023/12/17 00:42:55;;;;;;;15.33;8.13;;;;;;;;;;5029647;28;20413;-64
2023/12/17 00:45:21;;;;;;;15.20;8.27;;;;;;;;;;5029477;28;20497;-64
2023/12/17 00:47:47;;;;;;;18.00;8.10;;;;;;;;;;5028967;28;20045;-64
2023/12/17 00:50:14;;;;;;;14.03;8.97;;;;;;;;;;5029776;28;20789;-64
2023/12/17 00:52:40;;;;;;;16.10;7.77;;;;;;;;;;5029537;28;20042;-64
2023/12/17 00:55:06;;;;;;;14.27;8.13;;;;;;;;;;5029332;28;20400;-64
2023/12/17 00:57:35;;;;;;;14.93;7.93;;;;;;;;;;5029285;28;20128;-64
2023/12/17 01:00:03;;;;;;;17.97;7.27;;;;;;;;;;5029583;28;20045;-64
2023/12/17 01:02:29;;;;;;;13.17;7.47;;;;;;;;;;5030330;28;20099;-64
2023/12/17 01:04:55;;;;;;;18.47;8.33;;;;;;;;;;5029366;28;20045;-64
2023/12/17 01:07:21;;;;;;;16.40;7.30;;;;;;;;;;5029215;28;20515;-64
2023/12/17 01:09:47;;;;;;;16.43;7.83;;;;;;;;;;5022796;28;20040;-64
2023/12/17 01:12:13;;;;;;;12.63;6.80;;;;;;;;;;5028697;28;20419;-64
2023/12/17 01:14:39;;;;;;;11.50;7.20;;;;;;;;;;5029350;28;20041;-64
2023/12/17 01:17:07;;;;;;;18.63;7.67;;;;;;;;;;5029112;28;20038;-64
2023/12/17 01:19:34;;;;;;;13.53;7.27;;;;;;;;;;5034979;28;20127;-64
2023/12/17 01:22:02;;;;;;;16.50;7.67;;;;;;;;;;5047755;28;20462;-64
2023/12/17 01:24:28;;;;;;;20.13;7.93;;;;;;;;;;5048520;28;20128;-64
2023/12/17 01:26:54;;;;;;;15.60;7.33;;;;;;;;;;5036014;28;20462;-64
2023/12/17 01:29:20;;;;;;;16.33;8.17;;;;;;;;;;5028736;28;20041;-64
2023/12/17 01:31:46;;;;;;;14.07;8.33;;;;;;;;;;5029139;28;20038;-64
2023/12/17 01:34:12;;;;;;;16.53;7.17;;;;;;;;;;5028731;28;20045;-63
2023/12/17 01:36:38;;;;;;;17.63;8.73;;;;;;;;;;5038037;28;20136;-64
2023/12/17 01:39:04;;;;;;;15.30;8.80;;;;;;;;;;5028339;28;20045;-64
2023/12/17 01:41:29;;;;;;;18.63;7.90;;;;;;;;;;5028648;28;20056;-64
2023/12/17 01:43:56;;;;;;;18.87;8.00;;;;;;;;;;5028618;28;20543;-64
2023/12/17 01:46:22;;;;;;;17.63;8.47;;;;;;;;;;5028506;28;20041;-64
2023/12/17 01:48:48;;;;;;;13.93;9.27;;;;;;;;;;5028692;28;20436;-63
2023/12/17 01:51:14;;;;;;;15.40;8.87;;;;;;;;;;5028554;28;20550;-64
2023/12/17 01:53:40;;;;;;;15.57;8.90;;;;;;;;;;5029330;28;20424;-64
2023/12/17 01:56:07;;;;;;;22.83;10.00;;;;;;;;;;5028529;28;20447;-64
2023/12/17 01:58:33;;;;;;;20.17;9.13;;;;;;;;;;5028320;28;20164;-64
2023/12/17 02:00:59;;;;;;;18.67;10.17;;;;;;;;;;5028955;28;20132;-64
2023/12/17 02:03:28;;;;;;;17.87;9.87;;;;;;;;;;5040502;28;20084;-64
2023/12/17 02:05:55;;;;;;;17.07;9.60;;;;;;;;;;5048796;28;20346;-64
2023/12/17 02:08:21;;;;;;;18.60;9.50;;;;;;;;;;5044986;28;20042;-63
2023/12/17 02:10:47;;;;;;;21.37;10.00;;;;;;;;;;5029111;28;20487;-64
2023/12/17 02:13:15;;;;;;;13.57;10.10;;;;;;;;;;5028802;28;20045;-63
2023/12/17 02:15:43;;;;;;;17.63;10.50;;;;;;;;;;5028334;28;20053;-64
2023/12/17 02:18:09;;;;;;;20.70;11.33;;;;;;;;;;5028402;28;20420;-64
2023/12/17 02:20:35;;;;;;;16.93;10.00;;;;;;;;;;5028139;28;20041;-64
2023/12/17 02:23:05;;;;;;;24.50;11.67;;;;;;;;;;5028829;28;20072;-63
2023/12/17 02:25:31;;;;;;;22.50;11.00;;;;;;;;;;5028217;28;20085;-64
2023/12/17 02:27:58;;;;;;;19.80;10.63;;;;;;;;;;5029000;28;20064;-64
2023/12/17 02:30:25;;;;;;;16.83;10.57;;;;;;;;;;5028363;28;20045;-64
2023/12/17 02:32:52;;;;;;;30.90;12.33;;;;;;;;;;5028182;28;20115;-64
2023/12/17 02:35:18;;;;;;;18.17;11.13;;;;;;;;;;5028457;28;20081;-64
2023/12/17 02:37:44;;;;;;;18.27;9.87;;;;;;;;;;5027833;28;20041;-64
2023/12/17 02:40:10;;;;;;;19.10;10.10;;;;;;;;;;5028508;28;20046;-64
2023/12/17 02:42:36;;;;;;;21.60;11.90;;;;;;;;;;5028077;28;20561;-64
2023/12/17 02:45:02;;;;;;;19.13;11.07;;;;;;;;;;5028293;28;20099;-64
2023/12/17 02:47:28;;;;;;;19.40;10.87;;;;;;;;;;5028457;28;20135;-64
2023/12/17 02:49:54;;;;;;;16.43;10.67;;;;;;;;;;5028237;28;20451;-64
2023/12/17 02:52:20;;;;;;;18.80;10.53;;;;;;;;;;5028237;28;20053;-64
2023/12/17 02:54:48;;;;;;;15.70;10.63;;;;;;;;;;5029583;28;20104;-64
2023/12/17 02:57:14;;;;;;;17.40;10.47;;;;;;;;;;5027886;28;20085;-64
2023/12/17 02:59:40;;;;;;;20.03;10.10;;;;;;;;;;5025838;28;20492;-64
2023/12/17 03:02:06;;;;;;;19.90;9.97;;;;;;;;;;5025879;28;20126;-64
2023/12/17 03:04:32;;;;;;;16.03;9.90;;;;;;;;;;5024848;28;20077;-63
2023/12/17 03:06:58;;;;;;;18.37;10.10;;;;;;;;;;5027778;28;20052;-64
2023/12/17 03:09:24;;;;;;;18.50;9.30;;;;;;;;;;5030952;28;20136;-64
2023/12/17 03:11:50;;;;;;;18.17;9.43;;;;;;;;;;5030830;28;20136;-64
2023/12/17 03:14:16;;;;;;;18.77;9.43;;;;;;;;;;5031074;28;20564;-64
2023/12/17 03:16:42;;;;;;;15.33;9.07;;;;;;;;;;5030594;28;20045;-64
2023/12/17 03:19:08;;;;;;;16.33;9.00;;;;;;;;;;5030510;28;20493;-64
2023/12/17 03:21:37;;;;;;;15.43;9.40;;;;;;;;;;5030663;28;20103;-64
2023/12/17 03:24:05;;;;;;;15.57;8.97;;;;;;;;;;5030498;28;20519;-64
2023/12/17 03:26:31;;;;;;;18.67;9.33;;;;;;;;;;5029978;28;20050;-64
2023/12/17 03:28:57;;;;;;;15.27;10.20;;;;;;;;;;5030239;28;20141;-64
2023/12/17 03:31:23;;;;;;;11.97;8.43;;;;;;;;;;5030448;28;20045;-64
2023/12/17 03:33:49;;;;;;;20.20;9.10;;;;;;;;;;5030388;28;20682;-64
2023/12/17 03:36:16;;;;;;;16.80;9.50;;;;;;;;;;5029301;28;20050;-64
2023/12/17 03:38:47;;;;;;;15.57;9.57;;;;;;;;;;5030010;28;20511;-64
2023/12/17 03:41:22;;;;;;;14.57;9.97;;;;;;;;;;5029816;28;20046;-64
2023/12/17 03:43:50;;;;;;;15.90;8.63;;;;;;;;;;5030391;28;20058;-63
2023/12/17 03:46:16;;;;;;;16.73;8.83;;;;;;;;;;5030336;28;20042;-64
2023/12/17 03:48:42;;;;;;;15.47;9.93;;;;;;;;;;5029593;28;20045;-63
2023/12/17 03:51:10;;;;;;;17.07;9.03;;;;;;;;;;5029036;28;20056;-63
2023/12/17 03:53:39;;;;;;;18.67;9.20;;;;;;;;;;5030255;28;20546;-63
2023/12/17 03:56:09;;;;;;;14.50;9.03;;;;;;;;;;5029472;28;20060;-64
2023/12/17 03:58:35;;;;;;;17.40;9.70;;;;;;;;;;5029490;28;20467;-64
2023/12/17 04:01:02;;;;;;;15.50;9.30;;;;;;;;;;5030335;28;20107;-63
2023/12/17 04:03:28;;;;;;;18.47;9.37;;;;;;;;;;5030077;28;20419;-64
2023/12/17 04:05:56;;;;;;;18.50;10.50;;;;;;;;;;5030241;28;20057;-64
2023/12/17 04:08:22;;;;;;;12.70;8.87;;;;;;;;;;5029287;28;20060;-63
2023/12/17 04:10:48;;;;;;;19.17;10.03;;;;;;;;;;5030094;28;20045;-64
2023/12/17 04:13:14;;;;;;;18.90;10.00;;;;;;;;;;5029907;28;20084;-64
2023/12/17 04:15:40;;;;;;;15.53;9.93;;;;;;;;;;5029730;28;20037;-64
2023/12/17 04:18:06;;;;;;;17.20;8.93;;;;;;;;;;5029893;28;20084;-64
2023/12/17 04:20:32;;;;;;;16.27;9.63;;;;;;;;;;5029202;28;20520;-64
2023/12/17 04:22:58;;;;;;;13.30;9.27;;;;;;;;;;5029709;28;20046;-64
2023/12/17 04:25:25;;;;;;;25.57;11.00;;;;;;;;;;5029341;28;20041;-64
2023/12/17 04:27:51;;;;;;;16.97;10.20;;;;;;;;;;5029824;28;20073;-64
2023/12/17 04:30:17;;;;;;;13.30;9.93;;;;;;;;;;5029670;28;20049;-64
2023/12/17 04:32:43;;;;;;;20.43;9.27;;;;;;;;;;5029406;28;20084;-64
2023/12/17 04:35:09;;;;;;;16.13;10.23;;;;;;;;;;5029284;28;20443;-63
2023/12/17 04:37:37;;;;;;;14.57;10.13;;;;;;;;;;5029186;28;20100;-64
2023/12/17 04:40:03;;;;;;;20.20;9.77;;;;;;;;;;5029126;28;20076;-64
2023/12/17 04:42:29;;;;;;;16.87;10.03;;;;;;;;;;5029732;28;20479;-64
2023/12/17 04:44:55;;;;;;;19.13;10.70;;;;;;;;;;5029653;28;20093;-64
2023/12/17 04:47:21;;;;;;;15.57;10.37;;;;;;;;;;5029387;28;20096;-64
2023/12/17 04:49:47;;;;;;;16.80;10.00;;;;;;;;;;5028741;28;20445;-63
2023/12/17 04:52:13;;;;;;;19.77;10.90;;;;;;;;;;5027739;28;20048;-63
2023/12/17 04:54:39;;;;;;;19.93;10.40;;;;;;;;;;5028164;28;20495;-64
2023/12/17 04:57:07;;;;;;;18.90;9.43;;;;;;;;;;5028292;28;20041;-63
2023/12/17 04:59:33;;;;;;;14.50;10.30;;;;;;;;;;5028766;28;20038;-63
2023/12/17 05:01:59;;;;;;;14.73;10.17;;;;;;;;;;5027341;28;20209;-64
2023/12/17 05:04:25;;;;;;;15.93;9.73;;;;;;;;;;5029208;28;20099;-64
2023/12/17 05:06:51;;;;;;;17.13;11.07;;;;;;;;;;5028904;28;20936;-64
2023/12/17 05:09:17;;;;;;;16.57;9.40;;;;;;;;;;5028750;28;20120;-63
2023/12/17 05:11:44;;;;;;;13.03;9.50;;;;;;;;;;5028798;28;20459;-63
2023/12/17 05:14:10;;;;;;;18.97;9.47;;;;;;;;;;5029003;28;20057;-64
2023/12/17 05:16:36;;;;;;;18.10;10.23;;;;;;;;;;5028735;28;20047;-63
2023/12/17 05:19:02;;;;;;;16.30;10.30;;;;;;;;;;5028476;28;20041;-64
2023/12/17 05:21:28;;;;;;;12.57;8.67;;;;;;;;;;5028808;28;20045;-63
2023/12/17 05:23:54;;;;;;;15.33;9.50;;;;;;;;;;5028268;28;20087;-64
2023/12/17 05:26:20;;;;;;;14.80;9.17;;;;;;;;;;5027841;28;20120;-64
2023/12/17 05:28:48;;;;;;;13.67;9.47;;;;;;;;;;5027774;28;20046;-63
2023/12/17 05:31:14;;;;;;;11.40;8.63;;;;;;;;;;5027970;28;20092;-64
2023/12/17 05:33:40;;;;;;;14.50;8.50;;;;;;;;;;5028091;28;20627;-64
2023/12/17 05:36:06;;;;;;;12.60;7.83;;;;;;;;;;5027907;28;20120;-64
2023/12/17 05:38:34;;;;;;;11.33;7.27;;;;;;;;;;5023908;28;20045;-63
2023/12/17 05:41:00;;;;;;;14.37;7.67;;;;;;;;;;5027800;28;20697;-64
2023/12/17 05:43:26;;;;;;;13.03;7.37;;;;;;;;;;5028490;28;20114;-63
2023/12/17 05:45:52;;;;;;;13.23;7.23;;;;;;;;;;5028670;28;20049;-64
2023/12/17 05:48:18;;;;;;;14.43;7.57;;;;;;;;;;5033929;28;20044;-63
2023/12/17 05:50:46;;;;;;;9.50;7.07;;;;;;;;;;5030022;28;20049;-63
2023/12/17 05:53:12;;;;;;;14.63;7.60;;;;;;;;;;5028098;28;20053;-63
2023/12/17 05:55:38;;;;;;;10.83;6.73;;;;;;;;;;5028468;28;20052;-63
2023/12/17 05:58:06;;;;;;;12.17;6.90;;;;;;;;;;5028768;28;20455;-63
2023/12/17 06:00:32;;;;;;;13.23;7.80;;;;;;;;;;5026151;28;20042;-64
2023/12/17 06:02:58;;;;;;;10.83;7.33;;;;;;;;;;5028268;28;20115;-63
2023/12/17 06:05:24;;;;;;;14.37;7.33;;;;;;;;;;5028447;28;20129;-63
2023/12/17 06:07:50;;;;;;;12.63;6.83;;;;;;;;;;5028636;28;20040;-64
2023/12/17 06:10:16;;;;;;;12.07;7.47;;;;;;;;;;5025805;28;20496;-64
2023/12/17 06:12:42;;;;;;;14.77;7.37;;;;;;;;;;5027148;28;20518;-64
2023/12/17 06:15:09;;;;;;;10.37;6.60;;;;;;;;;;5026676;28;20076;-64
2023/12/17 06:17:35;;;;;;;17.10;7.53;;;;;;;;;;5026153;28;20397;-63
2023/12/17 06:20:02;;;;;;;14.93;7.60;;;;;;;;;;5028521;28;20111;-63
2023/12/17 06:22:28;;;;;;;17.87;7.37;;;;;;;;;;5028573;28;20558;-63
2023/12/17 06:24:54;;;;;;;12.07;7.50;;;;;;;;;;5028242;28;20050;-64
2023/12/17 06:27:20;;;;;;;12.20;7.03;;;;;;;;;;5023578;28;20411;-63
2023/12/17 06:29:48;;;;;;;12.33;7.33;;;;;;;;;;5027132;28;20053;-64
2023/12/17 06:32:15;;;;;;;13.90;7.90;;;;;;;;;;5028095;28;20041;-64
2023/12/17 06:34:42;;;;;;;12.57;7.87;;;;;;;;;;5028087;28;20476;-64
2023/12/17 06:37:08;;;;;;;13.63;8.73;;;;;;;;;;5028254;28;20043;-63
2023/12/17 06:39:34;;;;;;;13.73;8.53;;;;;;;;;;5027163;28;20095;-63
2023/12/17 06:42:00;;;;;;;16.57;9.20;;;;;;;;;;5030510;28;20057;-63
2023/12/17 06:44:26;;;;;;;15.87;9.73;;;;;;;;;;5048200;28;20068;-63
2023/12/17 06:46:52;;;;;;;15.10;9.50;;;;;;;;;;5031978;28;20053;-63
2023/12/17 06:49:18;;;;;;;12.50;8.97;;;;;;;;;;5032145;28;20065;-63
2023/12/17 06:51:44;;;;;;;20.67;9.37;;;;;;;;;;5032164;28;20145;-63
2023/12/17 06:54:10;;;;;;;12.93;9.03;;;;;;;;;;5031852;28;20136;-63
2023/12/17 06:56:36;;;;;;;20.93;9.63;;;;;;;;;;5031805;28;20045;-63
2023/12/17 06:59:02;;;;;;;17.57;9.40;;;;;;;;;;5031416;28;20503;-64
2023/12/17 07:01:29;;;;;;;16.97;9.20;;;;;;;;;;5030845;28;20060;-64
2023/12/17 07:03:55;;;;;;;13.23;9.17;;;;;;;;;;5030813;28;20042;-63
2023/12/17 07:06:21;;;;;;;17.53;10.13;;;;;;;;;;5031276;28;20462;-63
2023/12/17 07:08:48;;;;;;;13.73;8.83;;;;;;;;;;5031645;28;20474;-64
2023/12/17 07:11:14;;;;;;;17.93;10.83;;;;;;;;;;5030549;28;20053;-63
2023/12/17 07:13:40;;;;;;;12.10;8.80;;;;;;;;;;5029528;28;20050;-63
2023/12/17 07:16:07;;;;;;;17.40;11.10;;;;;;;;;;5029041;28;20033;-64
2023/12/17 07:18:32;;;;;;;21.33;10.97;;;;;;;;;;5030045;28;20045;-63
2023/12/17 07:20:58;;;;;;;15.40;11.20;;;;;;;;;;5030984;28;20053;-63
2023/12/17 07:23:27;;;;;;;21.50;12.03;;;;;;;;;;5030223;28;20088;-63
2023/12/17 07:25:53;;;;;;;17.93;11.10;;;;;;;;;;5030589;28;20065;-63
2023/12/17 07:28:19;;;;;;;24.90;14.13;;;;;;;;;;5030608;28;20042;-63
2023/12/17 07:30:45;;;;;;;15.63;12.03;;;;;;;;;;5030505;28;20328;-63
2023/12/17 07:33:11;;;;;;;21.63;14.03;;;;;;;;;;5030119;28;20526;-63
2023/12/17 07:35:37;;;;;;;24.77;15.33;;;;;;;;;;5030392;28;20037;-64
2023/12/17 07:38:03;;;;;;;20.37;15.47;;;;;;;;;;5030246;28;20057;-63
2023/12/17 07:40:29;;;;;;;21.00;15.37;;;;;;;;;;5030324;28;20045;-63
2023/12/17 07:42:55;;;;;;;23.90;15.73;;;;;;;;;;5030345;28;20519;-63
2023/12/17 07:45:21;;;;;;;23.93;16.47;;;;;;;;;;5030061;28;20102;-64
2023/12/17 07:47:47;;;;;;;24.97;13.60;;;;;;;;;;5030077;28;20053;-63
2023/12/17 07:50:13;;;;;;;25.73;14.20;;;;;;;;;;5030255;28;20077;-63
2023/12/17 07:52:39;;;;;;;22.30;14.23;;;;;;;;;;5029754;28;20124;-63
2023/12/17 07:55:06;;;;;;;22.50;15.10;;;;;;;;;;5029578;28;20056;-63
2023/12/17 07:57:33;;;;;;;23.93;14.97;;;;;;;;;;5030526;28;20466;-63
2023/12/17 07:59:59;;;;;;;24.83;14.47;;;;;;;;;;5030015;28;20096;-63
2023/12/17 08:02:26;;;;;;;19.57;13.67;;;;;;;;;;5029927;28;20073;-63
2023/12/17 08:04:52;;;;;;;21.17;11.77;;;;;;;;;;5029976;28;20050;-63
2023/12/17 08:07:18;;;;;;;23.57;12.83;;;;;;;;;;5029274;28;20046;-63
2023/12/17 08:09:44;;;;;;;24.00;12.30;;;;;;;;;;5029550;28;20088;-64
2023/12/17 08:12:10;;;;;;;20.80;12.13;;;;;;;;;;5030005;28;20077;-63
2023/12/17 08:14:36;;;;;;;29.67;13.13;;;;;;;;;;5029663;28;20047;-64
2023/12/17 08:17:02;;;;;;;18.73;11.90;;;;;;;;;;5029024;28;20095;-64
2023/12/17 08:19:28;;;;;;;18.63;10.47;;;;;;;;;;5029513;28;20079;-63
2023/12/17 08:21:57;;;;;;;23.27;12.10;;;;;;;;;;5029565;28;20419;-63
2023/12/17 08:24:24;;;;;;;24.27;10.80;;;;;;;;;;5029299;28;20111;-63
2023/12/17 08:26:51;;;;;;;17.40;11.90;;;;;;;;;;5029394;28;20053;-63
2023/12/17 08:29:17;;;;;;;19.87;9.83;;;;;;;;;;5029117;28;20500;-63
2023/12/17 08:31:46;;;;;;;19.67;10.57;;;;;;;;;;5028730;28;20496;-63
2023/12/17 08:34:12;;;;;;;18.50;9.40;;;;;;;;;;5029077;28;20048;-64
2023/12/17 08:36:41;;;;;;;26.50;12.33;;;;;;;;;;5028945;28;20041;-64
2023/12/17 08:39:07;;;;;;;16.53;9.70;;;;;;;;;;5028568;28;20156;-64
2023/12/17 08:41:33;;;;;;;23.80;11.10;;;;;;;;;;5029004;28;20088;-63
2023/12/17 08:44:05;;;;;;;20.13;11.33;;;;;;;;;;5028973;28;20111;-63
2023/12/17 08:46:31;;;;;;;20.90;11.30;;;;;;;;;;5028711;28;20049;-64
2023/12/17 08:48:57;;;;;;;20.10;10.40;;;;;;;;;;5028322;28;20474;-63
2023/12/17 08:51:23;;;;;;;26.80;13.07;;;;;;;;;;5028923;28;20045;-63
2023/12/17 08:53:49;;;;;;;21.03;12.70;;;;;;;;;;5028797;28;20135;-64
2023/12/17 08:56:15;;;;;;;24.57;12.83;;;;;;;;;;5028581;28;20045;-64
2023/12/17 08:58:41;;;;;;;23.27;12.70;;;;;;;;;;5028613;28;20038;-64
2023/12/17 09:01:07;;;;;;;23.83;13.60;;;;;;;;;;5028464;28;20049;-63
2023/12/17 09:03:33;;;;;;;23.17;14.43;;;;;;;;;;5028530;28;20045;-64
2023/12/17 09:06:00;;;;;;;25.97;13.97;;;;;;;;;;5027714;28;20056;-63
2023/12/17 09:08:26;;;;;;;24.07;13.20;;;;;;;;;;5028001;28;20049;-63
2023/12/17 09:10:52;;;;;;;22.33;13.60;;;;;;;;;;5028601;28;20120;-63
2023/12/17 09:13:18;;;;;;;24.97;13.50;;;;;;;;;;5028327;28;20480;-63
2023/12/17 09:15:44;;;;;;;24.97;14.27;;;;;;;;;;5028371;28;20431;-64
2023/12/17 09:18:11;;;;;;;23.87;13.47;;;;;;;;;;5027961;28;20391;-63
2023/12/17 09:20:37;;;;;;;34.13;15.63;;;;;;;;;;5028178;28;20097;-63
2023/12/17 09:23:03;;;;;;;25.67;14.73;;;;;;;;;;5028419;28;20041;-63
2023/12/17 09:25:29;;;;;;;26.57;15.23;;;;;;;;;;5027946;28;20045;-63
2023/12/17 09:27:55;;;;;;;25.30;14.47;;;;;;;;;;5027841;28;20041;-64
2023/12/17 09:30:21;;;;;;;23.23;14.50;;;;;;;;;;5028166;28;20052;-64
2023/12/17 09:32:48;;;;;;;22.70;13.40;;;;;;;;;;5027939;28;20132;-64
2023/12/17 09:35:16;;;;;;;23.50;14.60;;;;;;;;;;5028136;28;20133;-63
2023/12/17 09:37:42;;;;;;;27.50;14.90;;;;;;;;;;5028211;28;20053;-63
2023/12/17 09:40:08;;;;;;;27.87;15.80;;;;;;;;;;5027847;28;20079;-64
2023/12/17 09:42:35;;;;;;;27.70;17.30;;;;;;;;;;5027307;28;20057;-63
2023/12/17 09:45:01;;;;;;;25.70;16.43;;;;;;;;;;5028006;28;20088;-63
2023/12/17 09:47:27;;;;;;;29.63;17.80;;;;;;;;;;5028073;28;20570;-64
2023/12/17 09:49:53;;;;;;;28.67;17.43;;;;;;;;;;5028056;28;20095;-63
2023/12/17 09:52:19;;;;;;;27.20;16.63;;;;;;;;;;5027256;28;20041;-63
2023/12/17 09:54:51;;;;;;;31.90;17.30;;;;;;;;;;5027925;28;20083;-63
2023/12/17 09:57:17;;;;;;;26.07;16.10;;;;;;;;;;5027853;28;20041;-64
2023/12/17 09:59:44;;;;;;;34.30;18.17;;;;;;;;;;5027864;28;20052;-63
2023/12/17 10:02:17;;;;;;;25.27;18.03;;;;;;;;;;5027802;28;20055;-64
2023/12/17 10:04:43;;;;;;;28.27;17.97;;;;;;;;;;5027135;28;20041;-63
2023/12/17 10:07:10;;;;;;;29.43;16.47;;;;;;;;;;5028082;28;20099;-64
2023/12/17 10:09:36;;;;;;;33.17;16.30;;;;;;;;;;5028120;28;20195;-63
2023/12/17 10:12:03;;;;;;;27.43;15.87;;;;;;;;;;5028042;28;20067;-64
2023/12/17 10:14:30;;;;;;;25.03;17.13;;;;;;;;;;5027306;28;20045;-64
2023/12/17 10:16:56;;;;;;;25.37;15.27;;;;;;;;;;5030109;28;20049;-64
2023/12/17 10:19:22;;;;;;;26.77;16.87;;;;;;;;;;5031929;28;20056;-64
2023/12/17 10:21:48;;;;;;;25.47;15.67;;;;;;;;;;5031059;28;20045;-64
2023/12/17 10:24:14;;;;;;;27.03;15.77;;;;;;;;;;5031789;28;20549;-63
2023/12/17 10:26:44;;;;;;;21.67;13.63;;;;;;;;;;5030386;28;20045;-64
2023/12/17 10:29:14;;;;;;;22.70;15.30;;;;;;;;;;5031432;28;20384;-64
2023/12/17 10:31:41;;;;;;;22.23;15.00;;;;;;;;;;5031310;28;20092;-64
2023/12/17 10:34:18;;;;;;;21.03;14.63;;;;;;;;;;5030979;28;20044;-63
2023/12/17 10:36:48;;;;;;;20.47;13.70;;;;;;;;;;5031028;28;20095;-64
2023/12/17 10:39:17;;;;;;;19.60;12.23;;;;;;;;;;5031456;28;20049;-63
2023/12/17 10:41:44;;;;;;;20.80;11.77;;;;;;;;;;5031078;28;20056;-64
2023/12/17 10:44:13;;;;;;;17.53;12.47;;;;;;;;;;5030919;28;20107;-64
2023/12/17 10:46:43;;;;;;;19.17;12.53;;;;;;;;;;5031125;28;20507;-64
2023/12/17 10:49:10;;;;;;;19.53;12.83;;;;;;;;;;5031371;28;20216;-63
2023/12/17 10:51:40;;;;;;;16.10;12.27;;;;;;;;;;5031060;28;20044;-64
2023/12/17 10:54:06;;;;;;;16.73;11.73;;;;;;;;;;5030970;28;20415;-64
2023/12/17 10:56:34;;;;;;;15.60;10.97;;;;;;;;;;5031010;28;20051;-64
2023/12/17 10:59:02;;;;;;;19.20;13.97;;;;;;;;;;5030580;28;20052;-64
2023/12/17 11:01:28;;;;;;;25.00;14.50;;;;;;;;;;5030920;28;20042;-64
2023/12/17 11:03:54;;;;;;;17.67;13.07;;;;;;;;;;5031205;28;20050;-64
2023/12/17 11:06:20;;;;;;;21.23;13.63;;;;;;;;;;5030234;28;20535;-64
2023/12/17 11:08:46;;;;;;;20.77;13.87;;;;;;;;;;5029383;28;20053;-64
2023/12/17 11:11:12;;;;;;;20.13;12.93;;;;;;;;;;5029264;28;20108;-64
2023/12/17 11:13:39;;;;;;;19.10;14.20;;;;;;;;;;5030848;28;20081;-64
2023/12/17 11:16:24;;;;;;;24.30;15.77;;;;;;;;;;5030815;28;20046;-63
2023/12/17 11:18:50;;;;;;;20.47;14.13;;;;;;;;;;5030870;28;20065;-64
2023/12/17 11:21:18;;;;;;;21.43;14.50;;;;;;;;;;5030389;28;20095;-64
2023/12/17 11:23:53;;;;;;;22.17;15.33;;;;;;;;;;5030723;28;20045;-64
2023/12/17 11:26:19;;;;;;;25.67;14.60;;;;;;;;;;5030580;28;20140;-64
2023/12/17 11:28:48;;;;;;;25.63;17.27;;;;;;;;;;5029314;28;20087;-64
2023/12/17 11:31:14;;;;;;;25.10;16.60;;;;;;;;;;5030222;28;20450;-64
2023/12/17 11:33:40;;;;;;;26.20;16.77;;;;;;;;;;5028740;28;20045;-64
2023/12/17 11:36:08;;;;;;;25.17;18.20;;;;;;;;;;5028626;28;20590;-64
2023/12/17 11:38:35;;;;;;;28.27;17.27;;;;;;;;;;5029432;28;20045;-64
2023/12/17 11:41:02;;;;;;;31.67;19.17;;;;;;;;;;5029651;28;20470;-64
2023/12/17 11:43:30;;;;;;;27.47;17.00;;;;;;;;;;5029329;28;20149;-64
2023/12/17 11:45:56;;;;;;;28.63;18.40;;;;;;;;;;5030281;28;20558;-64
2023/12/17 11:48:22;;;;;;;26.50;18.50;;;;;;;;;;5030180;28;20072;-63
2023/12/17 11:50:49;;;;;;;31.83;19.60;;;;;;;;;;5030000;28;20049;-63
2023/12/17 11:53:16;;;;;;;29.57;18.93;;;;;;;;;;5029958;28;20052;-65
2023/12/17 11:55:55;;;;;;;28.93;17.97;;;;;;;;;;5029453;28;20077;-64
2023/12/17 11:58:22;;;;;;;32.97;17.50;;;;;;;;;;5029793;28;20057;-64
2023/12/17 12:01:06;;;;;;;31.33;19.37;;;;;;;;;;5029721;28;20064;-64
2023/12/17 12:03:32;;;;;;;31.03;18.83;;;;;;;;;;5029947;28;20046;-64
2023/12/17 12:05:59;;;;;;;30.03;17.53;;;;;;;;;;5028053;28;20056;-64
2023/12/17 12:08:26;;;;;;;29.60;18.57;;;;;;;;;;5026279;28;20080;-64
2023/12/17 12:10:52;;;;;;;29.40;20.00;;;;;;;;;;5028156;28;20385;-64
2023/12/17 12:13:18;;;;;;;28.03;17.57;;;;;;;;;;5026798;28;20480;-64
2023/12/17 12:15:44;;;;;;;28.67;18.23;;;;;;;;;;5027799;28;20049;-64
2023/12/17 12:18:21;;;;;;;28.80;18.33;;;;;;;;;;5028900;28;20054;-63
2023/12/17 12:20:47;;;;;;;25.17;16.90;;;;;;;;;;5028854;28;20041;-64
2023/12/17 12:23:13;;;;;;;24.50;15.63;;;;;;;;;;5029221;28;20041;-64
2023/12/17 12:25:39;;;;;;;25.90;16.53;;;;;;;;;;5028118;28;20053;-64
2023/12/17 12:28:06;;;;;;;27.23;17.23;;;;;;;;;;5029380;28;20139;-64
2023/12/17 12:30:32;;;;;;;27.87;17.83;;;;;;;;;;5027985;28;20045;-64
2023/12/17 12:33:11;;;;;;;26.67;18.20;;;;;;;;;;5028622;28;20045;-64
2023/12/17 12:35:38;;;;;;;31.67;17.93;;;;;;;;;;5029028;28;20049;-64
2023/12/17 12:38:23;;;;;;;24.03;16.27;;;;;;;;;;5016683;28;20400;-64
2023/12/17 12:40:50;;;;;;;24.07;16.20;;;;;;;;;;5028118;28;20049;-64
2023/12/17 12:43:17;;;;;;;25.10;17.93;;;;;;;;;;5028901;28;20053;-64
2023/12/17 12:45:44;;;;;;;23.13;15.93;;;;;;;;;;5028615;28;20455;-63
2023/12/17 12:48:23;;;;;;;23.63;15.53;;;;;;;;;;5029482;28;20053;-64
2023/12/17 12:50:50;;;;;;;24.97;16.03;;;;;;;;;;5026786;28;20491;-63
2023/12/17 12:53:17;;;;;;;24.67;14.53;;;;;;;;;;5028196;28;20466;-64
2023/12/17 12:55:43;;;;;;;22.83;15.50;;;;;;;;;;5028100;28;20491;-64
2023/12/17 12:58:09;;;;;;;25.23;15.63;;;;;;;;;;5027783;28;20041;-64
2023/12/17 13:00:35;;;;;;;20.23;13.87;;;;;;;;;;5028273;28;20077;-64
2023/12/17 13:03:01;;;;;;;21.80;14.43;;;;;;;;;;5028747;28;20052;-64
2023/12/17 13:05:27;;;;;;;23.93;15.53;;;;;;;;;;5028412;28;20049;-64
2023/12/17 13:07:53;;;;;;;17.83;13.27;;;;;;;;;;5027512;28;20057;-64
2023/12/17 13:10:19;;;;;;;19.67;14.53;;;;;;;;;;5028642;28;20492;-64
2023/12/17 13:12:45;;;;;;;21.33;15.30;;;;;;;;;;5028345;28;20096;-64
2023/12/17 13:15:12;;;;;;;19.43;15.27;;;;;;;;;;5028583;28;20511;-64
2023/12/17 13:17:38;;;;;;;22.00;14.80;;;;;;;;;;5026382;28;20582;-64
2023/12/17 13:20:06;;;;;;;21.13;14.93;;;;;;;;;;5028773;28;20060;-64
2023/12/17 13:22:32;;;;;;;23.97;14.97;;;;;;;;;;5027970;28;20049;-64
2023/12/17 13:24:58;;;;;;;20.87;15.27;;;;;;;;;;5028881;28;20052;-64
2023/12/17 13:27:24;;;;;;;24.20;16.53;;;;;;;;;;5028595;28;20053;-64
2023/12/17 13:29:50;;;;;;;19.07;13.50;;;;;;;;;;5028361;28;20046;-64
2023/12/17 13:32:16;;;;;;;22.63;15.40;;;;;;;;;;5048673;28;20079;-64
2023/12/17 13:34:42;;;;;;;21.80;16.60;;;;;;;;;;5035700;28;20046;-64
2023/12/17 13:37:09;;;;;;;22.70;15.87;;;;;;;;;;5027896;28;20049;-64
2023/12/17 13:39:38;;;;;;;21.37;15.37;;;;;;;;;;5028083;28;20084;-63
2023/12/17 13:42:05;;;;;;;24.97;16.90;;;;;;;;;;5027597;28;20123;-64
2023/12/17 13:44:31;;;;;;;27.57;16.23;;;;;;;;;;5027799;28;20049;-64
2023/12/17 13:46:57;;;;;;;25.07;16.07;;;;;;;;;;5028093;28;20056;-64
2023/12/17 13:49:23;;;;;;;24.30;16.57;;;;;;;;;;5027915;28;20069;-63
2023/12/17 13:51:49;;;;;;;24.33;15.73;;;;;;;;;;5027610;28;20045;-63
2023/12/17 13:54:15;;;;;;;21.10;15.30;;;;;;;;;;5026437;28;20078;-64
2023/12/17 13:56:41;;;;;;;21.37;14.87;;;;;;;;;;5027864;28;20064;-64
2023/12/17 13:59:11;;;;;;;20.40;13.70;;;;;;;;;;5028058;28;20460;-63
2023/12/17 14:01:38;;;;;;;22.97;15.37;;;;;;;;;;5026215;28;20053;-64
2023/12/17 14:04:04;;;;;;;22.63;15.00;;;;;;;;;;5027758;28;20539;-63
2023/12/17 14:06:30;;;;;;;22.23;15.47;;;;;;;;;;5026628;28;21034;-63
2023/12/17 14:08:56;;;;;;;23.90;14.77;;;;;;;;;;5027418;28;20041;-63
2023/12/17 14:11:22;;;;;;;21.37;14.30;;;;;;;;;;5027685;28;20045;-63
2023/12/17 14:13:48;;;;;;;21.57;13.80;;;;;;;;;;5028169;28;20050;-63
2023/12/17 14:16:22;;;;;;;18.80;13.00;;;;;;;;;;5027559;28;20050;-64
2023/12/17 14:18:50;;;;;;;19.67;13.05;;;;;;;;;;5027568;28;20111;-63